Time;durP1;ratioP1;P1;durP2;ratioP2;P2;SDS_P1;SDS_P2;PMS_P1;PMS_P2;Temp;Humidity;BMP_temperature;BMP_pressure;BME280_temperature;BME280_humidity;BME280_pressure;Samples;Min_cycle;Max_cycle;Signal;HPM_P1;HPM_P2
2021/10/04 00:01:47;;;;;;;8.00;5.05;;;10.80;99.90;;;;;;5016647;28;20041;-69
2021/10/04 00:04:15;;;;;;;5.97;3.20;;;10.80;99.90;;;;;;5013808;28;20054;-69
2021/10/04 00:06:42;;;;;;;6.65;3.50;;;10.80;99.90;;;;;;4997008;28;20049;-69
2021/10/04 00:09:09;;;;;;;4.43;2.83;;;10.70;99.90;;;;;;5010691;28;20061;-70
2021/10/04 00:11:36;;;;;;;4.72;3.30;;;10.70;99.90;;;;;;5005327;28;20069;-70
2021/10/04 00:14:02;;;;;;;5.00;3.35;;;10.80;99.90;;;;;;4996708;28;20065;-70
2021/10/04 00:16:29;;;;;;;6.90;3.60;;;10.80;99.90;;;;;;4997345;28;20104;-69
2021/10/04 00:18:56;;;;;;;4.13;3.22;;;10.80;99.90;;;;;;4989704;28;20495;-69
2021/10/04 00:21:23;;;;;;;6.38;3.15;;;10.80;99.90;;;;;;4996645;28;20045;-69
2021/10/04 00:23:50;;;;;;;4.97;3.97;;;10.80;99.90;;;;;;4993648;28;20053;-70
2021/10/04 00:26:17;;;;;;;4.82;3.67;;;10.70;99.90;;;;;;4974317;28;20252;-69
2021/10/04 00:28:44;;;;;;;4.30;3.28;;;10.60;99.90;;;;;;4980490;28;20628;-71
2021/10/04 00:31:10;;;;;;;7.47;3.30;;;10.60;99.90;;;;;;4968168;28;20054;-71
2021/10/04 00:33:37;;;;;;;6.57;3.45;;;10.50;99.90;;;;;;4978379;28;20053;-69
2021/10/04 00:36:05;;;;;;;4.97;3.42;;;10.60;99.90;;;;;;4988835;28;20147;-70
2021/10/04 00:38:32;;;;;;;3.10;2.80;;;10.60;99.90;;;;;;4997672;28;20053;-70
2021/10/04 00:40:59;;;;;;;5.45;3.15;;;10.60;99.90;;;;;;4996266;28;20522;-71
2021/10/04 00:43:26;;;;;;;3.30;2.78;;;10.60;99.90;;;;;;4998087;28;20045;-71
2021/10/04 00:45:53;;;;;;;4.15;2.50;;;10.60;99.90;;;;;;4981779;28;20494;-72
2021/10/04 00:48:20;;;;;;;3.67;2.42;;;10.60;99.90;;;;;;4976198;28;20042;-70
2021/10/04 00:50:49;;;;;;;5.63;2.58;;;10.70;99.90;;;;;;4975395;28;20532;-70
2021/10/04 00:53:16;;;;;;;5.80;2.67;;;10.80;99.90;;;;;;4959960;28;20038;-70
2021/10/04 00:55:43;;;;;;;6.07;3.10;;;10.80;99.90;;;;;;4996695;28;20060;-69
2021/10/04 00:58:11;;;;;;;3.50;3.00;;;10.90;99.90;;;;;;4997477;28;20065;-69
2021/10/04 01:00:39;;;;;;;5.88;2.80;;;10.90;99.90;;;;;;4998045;28;20671;-71
2021/10/04 01:03:06;;;;;;;5.45;3.35;;;10.90;99.90;;;;;;4998095;28;20049;-71
2021/10/04 01:05:33;;;;;;;3.90;2.63;;;11.00;99.90;;;;;;4999163;28;20114;-71
2021/10/04 01:08:00;;;;;;;4.47;2.67;;;10.90;99.90;;;;;;4981251;28;20457;-71
2021/10/04 01:10:27;;;;;;;4.55;2.40;;;10.90;99.90;;;;;;4995793;28;20052;-71
2021/10/04 01:12:54;;;;;;;8.00;3.35;;;11.00;99.90;;;;;;4996327;28;20069;-71
2021/10/04 01:15:22;;;;;;;4.85;2.80;;;11.00;99.90;;;;;;4998250;28;20407;-71
2021/10/04 01:17:49;;;;;;;3.92;2.97;;;11.00;99.90;;;;;;4997880;28;20054;-68
2021/10/04 01:20:17;;;;;;;8.15;2.90;;;11.00;99.90;;;;;;4980704;28;20396;-69
2021/10/04 01:22:44;;;;;;;3.15;2.70;;;10.90;99.90;;;;;;4994522;28;20055;-69
2021/10/04 01:25:13;;;;;;;6.05;3.22;;;10.90;99.90;;;;;;4978733;28;20526;-69
2021/10/04 01:27:40;;;;;;;3.47;2.90;;;10.80;99.90;;;;;;4996959;28;20076;-69
2021/10/04 01:30:09;;;;;;;5.97;3.40;;;10.90;99.90;;;;;;4998047;28;20057;-70
2021/10/04 01:32:37;;;;;;;4.40;2.80;;;10.80;99.90;;;;;;4980491;28;20326;-70
2021/10/04 01:35:05;;;;;;;4.55;2.88;;;10.80;99.90;;;;;;4998803;28;20317;-70
2021/10/04 01:37:31;;;;;;;8.38;3.10;;;10.80;99.90;;;;;;4996593;28;20042;-70
2021/10/04 01:39:58;;;;;;;8.20;3.13;;;10.80;99.90;;;;;;4979426;28;20046;-69
2021/10/04 01:42:25;;;;;;;6.60;3.40;;;10.90;99.90;;;;;;4964197;28;20088;-70
2021/10/04 01:44:52;;;;;;;4.00;2.80;;;10.90;99.90;;;;;;5018817;28;20088;-70
2021/10/04 01:47:19;;;;;;;7.57;2.75;;;10.80;99.90;;;;;;5014676;28;20049;-70
2021/10/04 01:49:46;;;;;;;4.38;2.28;;;10.80;99.90;;;;;;4993021;28;20072;-70
2021/10/04 01:52:13;;;;;;;2.92;2.17;;;10.70;99.90;;;;;;4997662;28;20676;-70
2021/10/04 01:54:41;;;;;;;3.92;2.13;;;10.70;99.90;;;;;;4978914;28;20077;-71
2021/10/04 01:57:09;;;;;;;5.07;1.85;;;10.60;99.90;;;;;;4995267;28;20394;-70
2021/10/04 01:59:36;;;;;;;4.22;1.95;;;10.70;99.90;;;;;;4992705;28;20517;-70
2021/10/04 02:02:03;;;;;;;5.95;2.50;;;10.70;99.90;;;;;;4996731;28;20058;-70
2021/10/04 02:04:30;;;;;;;4.07;2.10;;;10.70;99.90;;;;;;4992841;28;20105;-70
2021/10/04 02:06:57;;;;;;;5.00;2.00;;;10.60;99.90;;;;;;4976550;28;20141;-69
2021/10/04 02:09:24;;;;;;;4.88;2.40;;;10.60;99.90;;;;;;4960969;28;20120;-70
2021/10/04 02:11:51;;;;;;;4.63;1.98;;;10.50;99.90;;;;;;4976545;28;20236;-70
2021/10/04 02:14:18;;;;;;;5.00;2.03;;;10.30;99.90;;;;;;4994321;28;20392;-71
2021/10/04 02:16:45;;;;;;;5.20;2.25;;;10.40;99.90;;;;;;4994805;28;20719;-70
2021/10/04 02:19:13;;;;;;;4.28;2.10;;;10.40;99.90;;;;;;4986452;28;20043;-70
2021/10/04 02:21:41;;;;;;;10.05;2.97;;;10.40;99.90;;;;;;4972762;28;20074;-70
2021/10/04 02:24:08;;;;;;;2.70;2.13;;;10.40;99.90;;;;;;4982231;28;20142;-70
2021/10/04 02:26:35;;;;;;;7.57;2.45;;;10.40;99.90;;;;;;4967189;28;20070;-69
2021/10/04 02:29:02;;;;;;;4.80;2.10;;;10.30;99.90;;;;;;4977304;28;20069;-69
2021/10/04 02:31:29;;;;;;;3.60;1.92;;;10.20;99.90;;;;;;4958957;28;20054;-69
2021/10/04 02:33:57;;;;;;;4.25;2.42;;;10.10;99.90;;;;;;4996187;28;20062;-69
2021/10/04 02:36:24;;;;;;;5.03;2.10;;;10.00;99.90;;;;;;4979458;28;20164;-69
2021/10/04 02:38:54;;;;;;;2.95;2.25;;;10.00;99.90;;;;;;4976724;28;20244;-69
2021/10/04 02:41:21;;;;;;;5.72;1.80;;;9.90;99.90;;;;;;4978150;28;20103;-69
2021/10/04 02:43:48;;;;;;;4.22;3.03;;;10.00;99.90;;;;;;4964478;28;20191;-69
2021/10/04 02:46:15;;;;;;;4.10;2.47;;;9.90;99.90;;;;;;4976986;28;20046;-69
2021/10/04 02:48:42;;;;;;;8.43;2.33;;;9.90;99.90;;;;;;4969632;28;20386;-69
2021/10/04 02:51:09;;;;;;;8.35;3.00;;;9.70;99.90;;;;;;5007926;28;20034;-69
2021/10/04 02:53:36;;;;;;;4.60;2.38;;;9.60;99.90;;;;;;4982193;28;20050;-68
2021/10/04 02:56:05;;;;;;;3.53;2.03;;;9.60;99.90;;;;;;4994994;28;20054;-69
2021/10/04 02:58:32;;;;;;;5.63;2.50;;;9.70;99.90;;;;;;4999568;28;20068;-70
2021/10/04 03:01:00;;;;;;;6.65;2.47;;;9.70;99.90;;;;;;4998337;28;20414;-69
2021/10/04 03:03:27;;;;;;;3.95;2.55;;;9.70;99.90;;;;;;5000137;28;20121;-69
2021/10/04 03:05:54;;;;;;;6.45;3.05;;;9.70;99.90;;;;;;4982412;28;20419;-68
2021/10/04 03:08:21;;;;;;;4.00;2.50;;;9.70;99.90;;;;;;4999176;28;20558;-69
2021/10/04 03:10:49;;;;;;;6.60;3.22;;;9.70;99.90;;;;;;4996118;28;20053;-69
2021/10/04 03:13:16;;;;;;;7.60;2.78;;;9.80;99.90;;;;;;4998584;28;20053;-69
2021/10/04 03:15:43;;;;;;;7.20;2.72;;;9.80;99.90;;;;;;4979025;28;20518;-69
2021/10/04 03:18:11;;;;;;;5.78;2.50;;;9.80;99.90;;;;;;4995754;28;20054;-69
2021/10/04 03:20:39;;;;;;;6.43;2.70;;;9.90;99.90;;;;;;4985200;28;20069;-70
2021/10/04 03:23:07;;;;;;;6.57;2.88;;;9.80;99.90;;;;;;4979212;28;20062;-70
2021/10/04 03:25:34;;;;;;;2.83;1.95;;;9.80;99.90;;;;;;4981693;28;20076;-70
2021/10/04 03:28:01;;;;;;;4.43;1.77;;;9.80;99.90;;;;;;4999218;28;20074;-70
2021/10/04 03:30:28;;;;;;;7.25;2.28;;;9.90;99.90;;;;;;4997776;28;20538;-69
2021/10/04 03:32:55;;;;;;;5.15;2.15;;;9.90;99.90;;;;;;4999596;28;20054;-69
2021/10/04 03:35:22;;;;;;;4.35;2.03;;;9.80;99.90;;;;;;4999097;28;20367;-69
2021/10/04 03:37:49;;;;;;;4.97;2.08;;;9.90;99.90;;;;;;4997149;28;20050;-70
2021/10/04 03:40:16;;;;;;;3.33;2.38;;;9.80;99.90;;;;;;4997894;28;20046;-70
2021/10/04 03:42:44;;;;;;;4.80;2.10;;;9.90;99.90;;;;;;4998683;28;20129;-70
2021/10/04 03:45:12;;;;;;;4.82;2.05;;;9.80;99.90;;;;;;4981031;28;20038;-70
2021/10/04 03:47:39;;;;;;;4.53;2.17;;;9.80;99.90;;;;;;4988184;28;20046;-70
2021/10/04 03:50:08;;;;;;;6.57;1.80;;;9.90;99.90;;;;;;4974956;28;20153;-69
2021/10/04 03:52:36;;;;;;;3.03;1.65;;;9.90;99.90;;;;;;4979516;28;20088;-70
2021/10/04 03:55:04;;;;;;;3.10;1.92;;;9.90;99.90;;;;;;4995868;28;20057;-69
2021/10/04 03:57:32;;;;;;;3.78;2.08;;;10.00;99.90;;;;;;4966157;28;20042;-69
2021/10/04 03:59:59;;;;;;;9.13;1.80;;;9.90;99.90;;;;;;4998957;28;20443;-70
2021/10/04 04:02:26;;;;;;;3.00;1.52;;;10.00;99.90;;;;;;4998117;28;20050;-69
2021/10/04 04:04:53;;;;;;;4.00;1.40;;;10.00;99.90;;;;;;4998960;28;20134;-70
2021/10/04 04:07:19;;;;;;;7.40;1.23;;;10.00;99.90;;;;;;4997934;28;20402;-70
2021/10/04 04:09:46;;;;;;;5.55;1.38;;;10.00;99.90;;;;;;4999195;28;20061;-70
2021/10/04 04:12:13;;;;;;;3.95;1.30;;;10.00;99.90;;;;;;4979924;28;20076;-70
2021/10/04 04:14:40;;;;;;;4.40;1.33;;;10.20;99.90;;;;;;4997816;28;20553;-70
2021/10/04 04:17:06;;;;;;;4.40;2.15;;;10.20;99.90;;;;;;4981214;28;20419;-69
2021/10/04 04:19:33;;;;;;;4.60;1.30;;;10.20;99.90;;;;;;4979840;28;20042;-69
2021/10/04 04:22:00;;;;;;;8.45;1.50;;;10.20;99.90;;;;;;4996538;28;20383;-69
2021/10/04 04:24:27;;;;;;;2.45;1.70;;;10.20;99.90;;;;;;4969141;28;20046;-69
2021/10/04 04:26:56;;;;;;;2.58;1.40;;;10.20;99.90;;;;;;4992644;28;20725;-68
2021/10/04 04:29:23;;;;;;;3.15;1.48;;;10.10;99.90;;;;;;4997244;28;20708;-69
2021/10/04 04:31:50;;;;;;;4.38;1.58;;;10.20;99.90;;;;;;4996266;28;20049;-69
2021/10/04 04:34:17;;;;;;;2.35;1.50;;;10.20;99.90;;;;;;4996688;28;20470;-69
2021/10/04 04:36:44;;;;;;;2.22;1.67;;;10.20;99.90;;;;;;4997321;28;20053;-70
2021/10/04 04:39:11;;;;;;;3.55;1.50;;;10.30;99.90;;;;;;4997132;28;20088;-70
2021/10/04 04:41:38;;;;;;;2.65;1.88;;;10.30;99.90;;;;;;4997583;28;20335;-71
2021/10/04 04:44:05;;;;;;;3.97;1.67;;;10.30;99.90;;;;;;4995837;28;20053;-70
2021/10/04 04:46:32;;;;;;;3.42;1.50;;;10.40;99.90;;;;;;4987741;28;20094;-70
2021/10/04 04:48:59;;;;;;;3.88;1.50;;;10.40;99.90;;;;;;4981450;28;20092;-70
2021/10/04 04:51:26;;;;;;;1.92;1.40;;;10.50;99.90;;;;;;5003066;28;20053;-70
2021/10/04 04:53:53;;;;;;;5.63;1.30;;;10.60;99.90;;;;;;4986233;28;20061;-70
2021/10/04 04:56:20;;;;;;;2.03;1.27;;;10.50;99.90;;;;;;4991862;28;20336;-70
2021/10/04 04:58:46;;;;;;;2.67;1.90;;;10.50;99.90;;;;;;4962353;28;20365;-70
2021/10/04 05:01:13;;;;;;;3.38;1.60;;;10.50;99.90;;;;;;4976466;28;20670;-70
2021/10/04 05:03:41;;;;;;;2.05;1.55;;;10.50;99.90;;;;;;4980554;28;20108;-69
2021/10/04 05:06:08;;;;;;;2.85;1.60;;;10.50;99.90;;;;;;4994324;28;20076;-69
2021/10/04 05:08:35;;;;;;;4.85;1.30;;;10.50;99.90;;;;;;4964051;28;20496;-69
2021/10/04 05:11:02;;;;;;;6.82;1.63;;;10.50;99.90;;;;;;4975606;28;20089;-69
2021/10/04 05:13:29;;;;;;;2.45;1.63;;;10.50;99.90;;;;;;4959546;28;20046;-70
2021/10/04 05:15:56;;;;;;;3.03;1.60;;;10.50;99.90;;;;;;4977102;28;20120;-69
2021/10/04 05:18:22;;;;;;;3.42;1.40;;;10.60;99.90;;;;;;4975732;28;20062;-71
2021/10/04 05:20:49;;;;;;;3.95;1.52;;;10.60;99.90;;;;;;4995380;28;20049;-70
2021/10/04 05:23:16;;;;;;;4.40;1.10;;;10.50;99.90;;;;;;4990454;28;20118;-70
2021/10/04 05:25:43;;;;;;;1.30;1.10;;;10.50;99.90;;;;;;4987707;28;20161;-69
2021/10/04 05:28:10;;;;;;;6.05;1.92;;;10.50;99.90;;;;;;4996728;28;20570;-70
2021/10/04 05:30:37;;;;;;;4.53;2.00;;;10.50;99.90;;;;;;4996220;28;20431;-70
2021/10/04 05:33:03;;;;;;;3.20;1.98;;;10.50;99.90;;;;;;4997133;28;20113;-70
2021/10/04 05:35:30;;;;;;;3.00;1.50;;;10.50;99.90;;;;;;4995818;28;20046;-71
2021/10/04 05:37:57;;;;;;;3.25;1.90;;;10.30;99.90;;;;;;4993347;28;20144;-71
2021/10/04 05:40:25;;;;;;;2.28;1.73;;;10.30;99.90;;;;;;4994874;28;20810;-70
2021/10/04 05:42:52;;;;;;;2.72;1.80;;;10.30;99.90;;;;;;5012503;28;20058;-68
2021/10/04 05:45:19;;;;;;;3.42;1.85;;;10.30;99.90;;;;;;4996827;28;20248;-71
2021/10/04 05:47:46;;;;;;;2.85;1.60;;;10.30;99.90;;;;;;4992794;28;20064;-68
2021/10/04 05:50:14;;;;;;;5.32;2.10;;;10.30;99.90;;;;;;4987027;28;20080;-69
2021/10/04 05:52:41;;;;;;;5.00;2.42;;;10.40;99.90;;;;;;4994290;28;20250;-68
2021/10/04 05:55:08;;;;;;;10.05;2.38;;;10.20;99.90;;;;;;4978074;28;20054;-69
2021/10/04 05:57:36;;;;;;;4.13;2.13;;;10.20;99.90;;;;;;5000944;28;20058;-69
2021/10/04 06:00:08;;;;;;;2.97;2.30;;;10.30;99.90;;;;;;4995383;28;20080;-69
2021/10/04 06:02:35;;;;;;;4.53;1.95;;;10.30;99.90;;;;;;4980632;28;20157;-69
2021/10/04 06:05:07;;;;;;;2.22;1.90;;;10.40;99.90;;;;;;4976255;28;20038;-70
2021/10/04 06:07:34;;;;;;;11.18;1.90;;;10.30;99.90;;;;;;4986746;28;20042;-70
2021/10/04 06:10:03;;;;;;;2.47;2.03;;;10.30;99.90;;;;;;4983083;28;20374;-70
2021/10/04 06:12:30;;;;;;;4.43;2.00;;;10.20;99.90;;;;;;4995627;28;20050;-70
2021/10/04 06:14:59;;;;;;;5.63;2.10;;;10.20;99.90;;;;;;4993968;28;20382;-70
2021/10/04 06:17:27;;;;;;;2.65;2.05;;;10.30;99.90;;;;;;4994245;28;20049;-69
2021/10/04 06:19:54;;;;;;;6.95;1.88;;;10.30;99.90;;;;;;4978776;28;20029;-70
2021/10/04 06:22:22;;;;;;;3.85;2.03;;;10.30;99.90;;;;;;4977273;28;20462;-71
2021/10/04 06:24:49;;;;;;;5.38;2.00;;;10.40;99.90;;;;;;4982005;28;20049;-70
2021/10/04 06:27:17;;;;;;;5.88;2.10;;;10.40;99.90;;;;;;4993793;28;20046;-70
2021/10/04 06:29:44;;;;;;;6.70;2.20;;;10.40;99.90;;;;;;4997003;28;20064;-71
2021/10/04 06:32:11;;;;;;;7.70;2.15;;;10.50;99.90;;;;;;4994170;28;20046;-73
2021/10/04 06:34:38;;;;;;;3.65;1.73;;;10.50;99.90;;;;;;4982669;28;20462;-71
2021/10/04 06:37:04;;;;;;;4.63;1.77;;;10.50;99.90;;;;;;4990328;28;20056;-69
2021/10/04 06:39:31;;;;;;;4.00;1.80;;;10.60;99.90;;;;;;4995547;28;20065;-70
2021/10/04 06:41:58;;;;;;;2.53;2.30;;;10.50;99.90;;;;;;4996610;28;20046;-72
2021/10/04 06:44:31;;;;;;;4.82;2.47;;;10.60;99.90;;;;;;4996772;28;20092;-70
2021/10/04 06:46:59;;;;;;;5.70;2.13;;;10.70;99.90;;;;;;4976506;28;20165;-70
2021/10/04 06:49:34;;;;;;;2.85;1.83;;;10.60;99.90;;;;;;4992694;28;20050;-70
2021/10/04 06:52:03;;;;;;;2.22;2.03;;;10.70;99.90;;;;;;4994688;28;20435;-70
2021/10/04 06:54:30;;;;;;;2.95;1.90;;;10.80;99.90;;;;;;4992408;28;20328;-70
2021/10/04 06:56:57;;;;;;;3.50;1.60;;;10.90;99.90;;;;;;4976304;28;20050;-70
2021/10/04 06:59:24;;;;;;;6.50;1.85;;;11.00;99.90;;;;;;4979730;28;20046;-70
2021/10/04 07:01:51;;;;;;;1.83;1.33;;;10.80;99.90;;;;;;4996739;28;20149;-70
2021/10/04 07:04:18;;;;;;;2.17;1.70;;;10.90;99.90;;;;;;4998096;28;20088;-69
2021/10/04 07:06:44;;;;;;;4.22;1.77;;;11.00;99.90;;;;;;4961006;28;20333;-70
2021/10/04 07:09:11;;;;;;;8.27;1.73;;;11.10;99.90;;;;;;4979838;28;20057;-70
2021/10/04 07:11:38;;;;;;;3.88;2.08;;;11.20;99.90;;;;;;4995596;28;20046;-70
2021/10/04 07:14:05;;;;;;;2.70;2.05;;;11.20;99.90;;;;;;4996097;28;20509;-72
2021/10/04 07:16:32;;;;;;;5.25;2.30;;;11.20;99.90;;;;;;4993687;28;20053;-70
2021/10/04 07:19:00;;;;;;;3.00;2.10;;;11.30;99.90;;;;;;4985459;28;20046;-70
2021/10/04 07:21:27;;;;;;;3.85;2.88;;;11.40;99.90;;;;;;4985744;28;20054;-70
2021/10/04 07:23:53;;;;;;;4.80;2.05;;;11.50;99.90;;;;;;4995590;28;20562;-70
2021/10/04 07:26:22;;;;;;;6.85;1.90;;;11.50;99.90;;;;;;4967956;28;20120;-71
2021/10/04 07:28:50;;;;;;;1.80;1.70;;;11.50;99.90;;;;;;4987119;28;20061;-71
2021/10/04 07:31:18;;;;;;;4.50;1.73;;;11.70;99.90;;;;;;4999030;28;20082;-70
2021/10/04 07:33:46;;;;;;;4.95;1.83;;;11.60;99.90;;;;;;4975681;28;20102;-71
2021/10/04 07:36:12;;;;;;;2.85;1.60;;;11.70;99.90;;;;;;4966877;28;20054;-71
2021/10/04 07:38:39;;;;;;;5.53;2.05;;;11.80;99.90;;;;;;4997495;28;20049;-71
2021/10/04 07:41:08;;;;;;;7.93;1.65;;;11.80;99.90;;;;;;4999125;28;20050;-71
2021/10/04 07:43:35;;;;;;;5.47;2.03;;;11.90;99.90;;;;;;4979161;28;20068;-71
2021/10/04 07:46:04;;;;;;;2.47;1.98;;;11.90;99.90;;;;;;4981165;28;20038;-71
2021/10/04 07:48:31;;;;;;;3.97;2.10;;;12.00;99.90;;;;;;4978455;28;20054;-70
2021/10/04 07:50:58;;;;;;;4.57;1.90;;;12.10;99.90;;;;;;4987986;28;20054;-70
2021/10/04 07:53:25;;;;;;;3.20;1.98;;;12.10;99.90;;;;;;5001927;28;20078;-70
2021/10/04 07:55:52;;;;;;;6.30;2.15;;;12.10;99.90;;;;;;4984296;28;20070;-71
2021/10/04 07:58:19;;;;;;;3.17;1.50;;;12.30;99.90;;;;;;4979853;28;20042;-71
2021/10/04 08:00:46;;;;;;;2.30;1.52;;;12.40;99.90;;;;;;4997641;28;20064;-71
2021/10/04 08:03:13;;;;;;;5.20;1.75;;;12.40;99.90;;;;;;4999596;28;20049;-72
2021/10/04 08:05:40;;;;;;;5.15;1.80;;;12.40;99.90;;;;;;4997373;28;20052;-71
2021/10/04 08:08:06;;;;;;;10.40;1.60;;;12.40;99.90;;;;;;4997179;28;20104;-71
2021/10/04 08:10:33;;;;;;;4.03;1.52;;;12.40;99.90;;;;;;4994245;28;20057;-72
2021/10/04 08:13:00;;;;;;;4.07;1.30;;;12.40;99.90;;;;;;5014700;28;20445;-72
2021/10/04 08:15:27;;;;;;;6.28;1.60;;;12.40;99.90;;;;;;5005833;28;20216;-72
2021/10/04 08:17:54;;;;;;;2.53;1.17;;;12.40;99.90;;;;;;4995952;28;20473;-74
2021/10/04 08:20:22;;;;;;;5.47;1.58;;;12.40;99.90;;;;;;4996330;28;20400;-72
2021/10/04 08:22:49;;;;;;;3.80;1.30;;;12.40;99.90;;;;;;4977566;28;20105;-73
2021/10/04 08:25:16;;;;;;;3.45;1.33;;;12.40;99.90;;;;;;4985626;28;20069;-74
2021/10/04 08:27:43;;;;;;;3.33;1.30;;;12.40;99.90;;;;;;4998522;28;20049;-74
2021/10/04 08:30:12;;;;;;;3.90;1.40;;;12.40;99.90;;;;;;4996220;28;20051;-74
2021/10/04 08:32:39;;;;;;;2.63;0.98;;;12.40;99.90;;;;;;4998372;28;20475;-73
2021/10/04 08:35:07;;;;;;;5.22;1.35;;;12.40;99.90;;;;;;4996801;28;20073;-74
2021/10/04 08:37:35;;;;;;;1.33;1.02;;;12.40;99.90;;;;;;4995803;28;20470;-73
2021/10/04 08:40:05;;;;;;;2.38;1.15;;;12.40;99.90;;;;;;4996245;28;20152;-76
2021/10/04 08:42:32;;;;;;;3.38;1.10;;;12.50;99.90;;;;;;4997297;28;20366;-74
2021/10/04 08:45:00;;;;;;;7.03;1.20;;;12.50;99.90;;;;;;4997648;28;20062;-75
2021/10/04 08:47:27;;;;;;;1.90;1.30;;;12.50;99.90;;;;;;4977337;28;20046;-74
2021/10/04 08:49:54;;;;;;;3.58;1.27;;;12.60;99.90;;;;;;4974930;28;20408;-73
2021/10/04 08:52:21;;;;;;;2.45;1.10;;;12.60;99.90;;;;;;4985597;28;20549;-74
2021/10/04 08:54:48;;;;;;;8.02;1.70;;;12.70;99.90;;;;;;4991081;28;20045;-73
2021/10/04 08:57:14;;;;;;;9.18;1.70;;;12.70;99.90;;;;;;4995772;28;20054;-73
2021/10/04 08:59:41;;;;;;;2.40;1.63;;;12.60;99.90;;;;;;4997165;28;20061;-73
2021/10/04 09:02:22;;;;;;;3.42;1.30;;;12.70;99.90;;;;;;4994253;28;20041;-73
2021/10/04 09:05:07;;;;;;;3.72;1.17;;;12.70;99.90;;;;;;4996238;28;20046;-74
2021/10/04 09:07:43;;;;;;;;;;;12.80;99.90;;;;;;4979893;28;20344;-73
2021/10/04 09:10:11;;;;;;;;;;;12.90;99.90;;;;;;4993962;28;19932;-74
2021/10/04 09:12:59;;;;;;;2.45;1.23;;;12.90;99.90;;;;;;4978302;28;19932;-72
2021/10/04 09:15:34;;;;;;;2.72;1.50;;;13.00;99.90;;;;;;4963408;28;25127;-73
2021/10/04 09:18:03;;;;;;;1.85;1.20;;;13.00;99.90;;;;;;4977898;28;20050;-73
2021/10/04 09:21:03;;;;;;;3.28;1.58;;;13.00;99.90;;;;;;4961518;28;22044;-73
2021/10/04 09:23:29;;;;;;;4.55;1.60;;;13.00;99.90;;;;;;4996290;28;20060;-71
2021/10/04 09:25:56;;;;;;;5.07;1.95;;;13.10;99.90;;;;;;4992471;28;20045;-72
2021/10/04 09:28:37;;;;;;;3.90;1.52;;;13.20;99.90;;;;;;4976801;28;20116;-72
2021/10/04 09:31:20;;;;;;;3.83;1.58;;;13.20;99.90;;;;;;4971322;28;20146;-72
2021/10/04 09:34:09;;;;;;;4.95;1.98;;;13.20;99.90;;;;;;4993122;28;20054;-72
2021/10/04 09:36:42;;;;;;;2.38;2.10;;;13.30;99.90;;;;;;4992248;28;20422;-72
2021/10/04 09:39:11;;;;;;;2.72;1.75;;;13.40;99.90;;;;;;4992123;28;20065;-74
2021/10/04 09:41:55;;;;;;;5.25;1.90;;;13.40;99.90;;;;;;4990911;28;20045;-74
2021/10/04 09:44:41;;;;;;;2.40;1.55;;;13.40;99.90;;;;;;4995230;28;20050;-72
2021/10/04 09:47:14;;;;;;;4.10;1.52;;;13.40;99.90;;;;;;4962807;28;20505;-73
2021/10/04 09:49:59;;;;;;;2.33;1.70;;;13.50;99.90;;;;;;4988677;28;20125;-75
2021/10/04 09:52:46;;;;;;;5.03;1.70;;;13.40;99.90;;;;;;4996009;28;20049;-71
2021/10/04 09:55:16;;;;;;;5.97;1.90;;;13.50;99.90;;;;;;4992585;28;20403;-73
2021/10/04 09:57:43;;;;;;;1.50;1.40;;;13.50;99.90;;;;;;4995650;28;20060;-73
2021/10/04 10:00:10;;;;;;;3.15;1.67;;;13.40;99.90;;;;;;4994379;28;20045;-73
2021/10/04 10:02:37;;;;;;;4.05;1.58;;;13.40;99.90;;;;;;4995743;28;20057;-72
2021/10/04 10:05:06;;;;;;;5.47;1.73;;;13.40;99.90;;;;;;4995452;28;20046;-74
2021/10/04 10:07:33;;;;;;;2.40;1.65;;;13.40;99.90;;;;;;4996202;28;20053;-73
2021/10/04 10:10:00;;;;;;;2.30;1.45;;;13.40;99.90;;;;;;4979353;28;20362;-72
2021/10/04 10:12:27;;;;;;;2.33;2.13;;;13.40;99.90;;;;;;4994228;28;20049;-73
2021/10/04 10:14:54;;;;;;;2.22;1.80;;;13.50;99.90;;;;;;4995573;28;20525;-73
2021/10/04 10:17:29;;;;;;;1.98;1.88;;;13.50;99.90;;;;;;4997719;28;20486;-74
2021/10/04 10:19:57;;;;;;;2.22;1.90;;;13.60;99.90;;;;;;4978741;28;20042;-73
2021/10/04 10:22:29;;;;;;;4.20;1.98;;;13.60;99.90;;;;;;4977227;28;20077;-72
2021/10/04 10:24:56;;;;;;;3.10;2.38;;;13.60;99.90;;;;;;4992734;28;20483;-73
2021/10/04 10:27:43;;;;;;;3.15;2.20;;;13.70;99.90;;;;;;4995684;28;20144;-74
2021/10/04 10:30:21;;;;;;;3.72;2.03;;;13.80;99.90;;;;;;4993427;28;20064;-74
2021/10/04 10:32:47;;;;;;;3.33;2.60;;;13.90;99.90;;;;;;4998426;28;20054;-74
2021/10/04 10:35:14;;;;;;;3.60;2.13;;;13.90;99.90;;;;;;4996371;28;20105;-73
2021/10/04 10:37:50;;;;;;;3.97;2.63;;;14.00;99.90;;;;;;4995455;28;20137;-74
2021/10/04 10:40:20;;;;;;;5.18;3.80;;;14.20;99.90;;;;;;4967945;28;20217;-75
2021/10/04 10:43:05;;;;;;;3.22;2.80;;;14.40;99.90;;;;;;4995318;28;20050;-74
2021/10/04 10:45:50;;;;;;;3.95;2.67;;;14.60;99.90;;;;;;4961008;28;20045;-74
2021/10/04 10:48:18;;;;;;;4.97;2.97;;;14.80;99.90;;;;;;4976348;28;20101;-74
2021/10/04 10:50:47;;;;;;;3.92;3.10;;;14.90;99.90;;;;;;4962373;28;20045;-72
2021/10/04 10:53:23;;;;;;;3.45;3.15;;;14.90;99.90;;;;;;4984242;28;20157;-74
2021/10/04 10:55:56;;;;;;;3.70;3.50;;;15.00;99.90;;;;;;4995061;28;20041;-73
2021/10/04 10:58:25;;;;;;;5.32;4.07;;;15.20;99.90;;;;;;4994293;28;20057;-72
2021/10/04 11:01:06;;;;;;;6.53;3.70;;;15.10;99.90;;;;;;4995858;28;20050;-71
2021/10/04 11:03:51;;;;;;;4.53;3.60;;;15.10;99.90;;;;;;4984604;28;20477;-71
2021/10/04 11:06:18;;;;;;;4.65;3.63;;;15.10;99.90;;;;;;4999704;28;20457;-71
2021/10/04 11:08:46;;;;;;;5.05;4.13;;;15.20;99.90;;;;;;4982375;28;20050;-72
2021/10/04 11:11:19;;;;;;;4.45;3.97;;;15.30;99.90;;;;;;4999036;28;20041;-73
2021/10/04 11:14:03;;;;;;;4.45;4.05;;;15.10;99.90;;;;;;4998465;28;20141;-72
2021/10/04 11:16:34;;;;;;;4.40;4.13;;;15.10;99.90;;;;;;4982662;28;20046;-70
2021/10/04 11:19:02;;;;;;;4.60;4.30;;;15.30;99.90;;;;;;5000824;28;20288;-72
2021/10/04 11:21:30;;;;;;;4.82;4.15;;;15.30;99.90;;;;;;4999471;28;20633;-71
2021/10/04 11:24:05;;;;;;;6.32;5.78;;;15.40;99.90;;;;;;4990596;28;20054;-72
2021/10/04 11:26:38;;;;;;;7.63;7.18;;;15.40;99.90;;;;;;5003062;28;20050;-70
2021/10/04 11:29:07;;;;;;;5.88;5.40;;;15.30;99.90;;;;;;4978658;28;20152;-71
2021/10/04 11:31:36;;;;;;;6.75;6.35;;;15.20;99.90;;;;;;4979656;28;20149;-70
2021/10/04 11:34:07;;;;;;;5.18;4.90;;;15.20;99.90;;;;;;4968067;28;20098;-72
2021/10/04 11:36:56;;;;;;;6.10;5.70;;;15.20;99.90;;;;;;4996821;28;20506;-72
2021/10/04 11:39:26;;;;;;;4.95;4.75;;;15.20;99.90;;;;;;4999851;28;20108;-71
2021/10/04 11:41:56;;;;;;;7.65;6.03;;;15.20;99.90;;;;;;4998767;28;20050;-72
2021/10/04 11:44:27;;;;;;;6.63;6.05;;;15.20;99.90;;;;;;5001179;28;20057;-71
2021/10/04 11:46:57;;;;;;;6.10;5.60;;;15.10;99.90;;;;;;4998966;28;20046;-71
2021/10/04 11:49:27;;;;;;;13.48;12.15;;;15.20;99.90;;;;;;4987349;28;20073;-72
2021/10/04 11:51:57;;;;;;;12.82;11.82;;;15.30;99.90;;;;;;4990578;28;20045;-71
2021/10/04 11:54:30;;;;;;;6.93;6.40;;;15.40;99.90;;;;;;4988395;28;20213;-71
2021/10/04 11:56:57;;;;;;;13.55;12.35;;;15.40;99.90;;;;;;4973506;28;20217;-72
2021/10/04 11:59:25;;;;;;;7.88;7.28;;;15.50;99.90;;;;;;4999538;28;20056;-68
2021/10/04 12:01:54;;;;;;;11.18;6.60;;;15.50;99.90;;;;;;4982504;28;20042;-69
2021/10/04 12:04:22;;;;;;;7.13;6.30;;;15.40;99.90;;;;;;5000843;28;20406;-71
2021/10/04 12:06:50;;;;;;;35.05;25.95;;;15.20;99.90;;;;;;4999981;28;20311;-72
2021/10/04 12:09:21;;;;;;;10.55;9.63;;;15.20;99.90;;;;;;5000567;28;20045;-71
2021/10/04 12:11:53;;;;;;;6.30;6.00;;;15.30;99.90;;;;;;4981956;28;20054;-66
2021/10/04 12:14:25;;;;;;;6.70;6.20;;;15.20;99.90;;;;;;4981148;28;20101;-71
2021/10/04 12:16:58;;;;;;;9.80;8.85;;;15.30;99.90;;;;;;4977612;28;20046;-69
2021/10/04 12:19:25;;;;;;;7.32;6.93;;;15.50;99.90;;;;;;4977824;28;20104;-71
2021/10/04 12:21:55;;;;;;;7.07;6.57;;;15.40;99.90;;;;;;4992898;28;20038;-69
2021/10/04 12:24:29;;;;;;;8.70;8.30;;;15.30;99.90;;;;;;4995044;28;20129;-70
2021/10/04 12:27:18;;;;;;;6.65;6.35;;;15.30;99.90;;;;;;4993735;28;20050;-71
2021/10/04 12:29:47;;;;;;;6.75;6.15;;;15.20;99.90;;;;;;4999872;28;20271;-71
2021/10/04 12:32:22;;;;;;;7.05;6.65;;;15.30;99.90;;;;;;4981044;28;20148;-70
2021/10/04 12:35:23;;;;;;;6.32;5.90;;;15.40;99.90;;;;;;4997979;28;20065;-70
2021/10/04 12:37:53;;;;;;;7.32;6.78;;;15.40;99.90;;;;;;4981964;28;20151;-70
2021/10/04 12:40:48;;;;;;;7.50;6.78;;;15.50;99.90;;;;;;4997384;28;20056;-70
2021/10/04 12:43:16;;;;;;;6.87;6.57;;;15.50;99.90;;;;;;4981506;28;20045;-70
2021/10/04 12:45:58;;;;;;;5.80;5.60;;;15.70;99.90;;;;;;4997428;28;20277;-70
2021/10/04 12:48:27;;;;;;;6.85;6.38;;;16.00;99.90;;;;;;4998424;28;20054;-70
2021/10/04 12:51:18;;;;;;;8.38;7.97;;;16.00;99.90;;;;;;4997023;28;20495;-71
2021/10/04 12:53:45;;;;;;;7.72;7.18;;;16.00;99.90;;;;;;4995621;28;20052;-71
2021/10/04 12:56:13;;;;;;;8.50;7.90;;;16.00;99.90;;;;;;4994859;28;20060;-70
2021/10/04 12:59:04;;;;;;;8.45;7.50;;;16.10;99.90;;;;;;4997154;28;20072;-72